.
WxDataArchive / Data Records for 2007-02-24
2007-02-23 February 2007 2007-02-25

Data Records for Saturday, 24 February 2007

Time	Temp	Chill	HIndex	Humid	Dewpt	 Wind 	HiWind	WindDir	Rain 	Barom 
-----	----	-----	------	-----	-----	------	------	-------	-----	----- 
00:00	19.9	19.9	19.9	69	11.4	1	5	90	0.00	30.331 
00:05	19.9	19.9	19.9	68	11.1	2	5	112	0.00	30.331 
00:10	20.0	20.0	20.0	68	11.2	2	5	90	0.00	30.330 
00:15	20.3	20.3	20.3	67	11.1	3	6	90	0.00	30.325 
00:20	20.3	20.3	20.3	67	11.1	3	7	112	0.00	30.327 
00:25	20.5	20.5	20.5	67	11.3	2	6	112	0.00	30.330 
00:30	20.5	20.5	20.5	67	11.3	3	6	112	0.00	30.326 
00:35	20.5	14.8	20.5	67	11.3	4	7	112	0.00	30.320 
00:40	20.3	20.3	20.3	67	11.1	3	6	112	0.00	30.322 
00:45	20.3	20.3	20.3	67	11.1	3	6	112	0.00	30.319 
00:50	20.3	14.6	20.3	67	11.1	4	9	112	0.00	30.316 
00:55	20.2	20.2	20.2	68	11.4	3	6	112	0.00	30.318 
01:00	20.2	20.2	20.2	68	11.4	3	5	112	0.00	30.317 
01:05	20.2	20.2	20.2	68	11.4	3	6	112	0.00	30.317 
01:10	20.2	20.2	20.2	69	11.7	3	6	112	0.00	30.317 
01:15	20.2	20.2	20.2	69	11.7	2	5	112	0.00	30.321 
01:20	20.2	20.2	20.2	69	11.7	2	5	112	0.00	30.321 
01:25	20.2	20.2	20.2	69	11.7	3	6	112	0.00	30.319 
01:30	20.2	14.4	20.2	69	11.7	4	10	90	0.00	30.314 
01:35	20.2	20.2	20.2	70	12.0	3	7	90	0.00	30.317 
01:40	20.3	14.6	20.3	69	11.8	4	10	112	0.00	30.327 
01:45	20.3	20.3	20.3	70	12.1	3	6	112	0.00	30.331 
01:50	20.3	20.3	20.3	70	12.1	3	6	112	0.00	30.333 
01:55	20.3	20.3	20.3	70	12.1	3	7	112	0.00	30.343 
02:00	20.3	20.3	20.3	70	12.1	2	5	90	0.00	30.343 
02:05	20.3	20.3	20.3	70	12.1	2	5	90	0.00	30.342 
02:10	20.2	20.2	20.2	70	12.0	3	9	112	0.00	30.342 
02:15	20.2	14.4	20.2	69	11.7	4	9	90	0.00	30.340 
02:20	20.2	20.2	20.2	68	11.4	3	7	90	0.00	30.340 
02:25	20.2	20.2	20.2	70	12.0	3	6	112	0.00	30.338 
02:30	20.2	20.2	20.2	71	12.3	3	9	90	0.00	30.335 
02:35	20.0	14.2	20.0	70	11.8	4	7	90	0.00	30.337 
02:40	20.2	20.2	20.2	71	12.3	3	6	112	0.00	30.330 
02:45	20.2	14.4	20.2	71	12.3	4	10	112	0.00	30.324 
02:50	20.2	14.4	20.2	72	12.6	4	9	112	0.00	30.315 
02:55	20.2	13.2	20.2	72	12.6	5	10	112	0.00	30.311 
03:00	20.2	13.2	20.2	72	12.6	5	9	112	0.00	30.313 
03:05	20.2	13.2	20.2	72	12.6	5	10	112	0.00	30.315 
03:10	20.2	13.2	20.2	72	12.6	5	11	112	0.00	30.312 
03:15	20.3	14.6	20.3	72	12.7	4	11	112	0.00	30.313 
03:20	20.3	14.6	20.3	73	13.1	4	9	90	0.00	30.311 
03:25	20.3	20.3	20.3	73	13.1	1	5	112	0.00	30.316 
03:30	20.3	14.6	20.3	73	13.1	4	9	112	0.00	30.315 
03:35	20.3	14.6	20.3	73	13.1	4	7	112	0.00	30.312 
03:40	20.5	20.5	20.5	73	13.2	3	6	90	0.00	30.313 
03:45	20.5	20.5	20.5	73	13.2	3	6	112	0.00	30.313 
03:50	20.3	14.6	20.3	73	13.1	4	9	112	0.00	30.311 
03:55	20.3	14.6	20.3	73	13.1	4	9	112	0.00	30.313 
04:00	20.3	14.6	20.3	72	12.7	4	11	112	0.00	30.315 
04:05	20.3	13.3	20.3	72	12.7	5	11	112	0.00	30.314 
04:10	20.3	13.3	20.3	72	12.7	5	11	112	0.00	30.315 
04:15	20.2	12.2	20.2	73	13.0	6	12	112	0.00	30.313 
04:20	20.2	14.4	20.2	73	13.0	4	10	112	0.00	30.314 
04:25	20.2	14.4	20.2	73	13.0	4	9	112	0.00	30.313 
04:30	20.0	13.0	20.0	74	13.1	5	11	112	0.00	30.311 
04:35	20.0	14.2	20.0	74	13.1	4	9	90	0.00	30.313 
04:40	20.0	14.2	20.0	74	13.1	4	8	90	0.00	30.313 
04:45	20.0	13.0	20.0	74	13.1	5	10	112	0.00	30.314 
04:50	20.0	14.2	20.0	75	13.4	4	10	90	0.00	30.314 
04:55	19.9	11.8	19.9	75	13.3	6	13	112	0.00	30.316 
05:00	19.9	12.9	19.9	75	13.3	5	12	90	0.00	30.320 
05:05	19.9	14.1	19.9	76	13.6	4	9	90	0.00	30.320 
05:10	19.9	11.8	19.9	75	13.3	6	11	112	0.00	30.315 
05:15	19.9	11.8	19.9	74	13.0	6	13	90	0.00	30.315 
05:20	19.7	12.6	19.7	74	12.8	5	11	90	0.00	30.314 
05:25	19.7	11.6	19.7	74	12.8	6	11	90	0.00	30.314 
05:30	19.7	12.6	19.7	75	13.1	5	12	90	0.00	30.314 
05:35	19.7	10.7	19.7	74	12.8	7	14	90	0.00	30.314 
05:40	19.7	10.7	19.7	75	13.1	7	14	112	0.00	30.313 
05:45	19.5	10.4	19.5	75	12.9	7	12	90	0.00	30.313 
05:50	19.5	11.3	19.5	75	12.9	6	14	112	0.00	30.312 
05:55	19.4	11.2	19.4	75	12.8	6	12	90	0.00	30.312 
06:00	19.4	12.3	19.4	75	12.8	5	10	112	0.00	30.312 
06:05	19.4	19.4	19.4	76	13.1	3	6	112	0.00	30.313 
06:10	19.4	11.2	19.4	76	13.1	6	13	112	0.00	30.313 
06:15	19.4	12.3	19.4	76	13.1	5	11	112	0.00	30.313 
06:20	19.4	13.5	19.4	76	13.1	4	11	112	0.00	30.312 
06:25	19.4	11.2	19.4	76	13.1	6	13	90	0.00	30.311 
06:30	19.4	12.3	19.4	76	13.1	5	11	90	0.00	30.308 
06:35	19.4	11.2	19.4	76	13.1	6	16	90	0.00	30.305 
06:40	19.2	12.0	19.2	76	12.9	5	11	90	0.00	30.307 
06:45	19.2	11.0	19.2	76	12.9	6	12	112	0.00	30.317 
06:50	19.2	13.3	19.2	76	12.9	4	10	90	0.00	30.320 
06:55	19.1	13.2	19.1	76	12.8	4	11	112	0.00	30.317 
07:00	19.1	11.9	19.1	76	12.8	5	9	112	0.00	30.316 
07:05	18.9	11.7	18.9	76	12.6	5	10	90	0.00	30.318 
07:10	18.9	11.7	18.9	76	12.6	5	12	112	0.00	30.319 
07:15	18.9	12.9	18.9	76	12.6	4	9	112	0.00	30.316 
07:20	18.9	10.6	18.9	76	12.6	6	10	112	0.00	30.314 
07:25	18.9	12.9	18.9	76	12.6	4	9	112	0.00	30.313 
07:30	18.9	10.6	18.9	76	12.6	6	11	90	0.00	30.307 
07:35	18.8	10.5	18.8	76	12.5	6	10	112	0.00	30.309 
07:40	18.8	10.5	18.8	76	12.5	6	12	90	0.00	30.310 
07:45	18.8	11.6	18.8	76	12.5	5	14	112	0.00	30.316 
07:50	18.8	12.8	18.8	76	12.5	4	10	112	0.00	30.316 
07:55	18.9	12.9	18.9	76	12.6	4	7	112	0.00	30.319 
08:00	18.9	11.7	18.9	76	12.6	5	14	90	0.00	30.312 
08:05	18.8	9.6	18.8	76	12.5	7	13	112	0.00	30.309 
08:10	18.9	10.6	18.9	76	12.6	6	12	112	0.00	30.304 
08:15	18.9	10.6	18.9	76	12.6	6	13	112	0.00	30.302 
08:20	18.9	10.6	18.9	76	12.6	6	12	112	0.00	30.304 
08:25	18.9	10.6	18.9	76	12.6	6	11	112	0.00	30.304 
08:30	18.9	11.7	18.9	76	12.6	5	13	90	0.00	30.300 
08:35	19.1	11.9	19.1	76	12.8	5	10	90	0.00	30.306 
08:40	19.2	12.0	19.2	76	12.9	5	14	112	0.00	30.312 
08:45	19.2	11.0	19.2	76	12.9	6	12	112	0.00	30.317 
08:50	19.4	11.2	19.4	75	12.8	6	12	90	0.00	30.320 
08:55	19.4	12.3	19.4	76	13.1	5	11	112	0.00	30.320 
09:00	19.5	11.3	19.5	76	13.2	6	13	112	0.00	30.313 
09:05	19.7	12.6	19.7	76	13.4	5	11	112	0.00	30.310 
09:10	19.7	10.7	19.7	75	13.1	7	14	112	0.00	30.306 
09:15	19.7	12.6	19.7	76	13.4	5	12	90	0.00	30.309 
09:20	19.9	14.1	19.9	76	13.6	4	10	112	0.00	30.311 
09:25	20.0	11.0	20.0	75	13.4	7	15	112	0.00	30.305 
09:30	20.3	13.3	20.3	75	13.7	5	12	90	0.00	30.302 
09:35	21.1	14.3	21.1	74	14.1	5	13	112	0.00	30.300 
09:40	21.6	13.8	21.6	74	14.6	6	12	112	0.00	30.299 
09:45	21.6	13.8	21.6	74	14.6	6	11	112	0.00	30.298 
09:50	21.9	13.3	21.9	72	14.3	7	13	112	0.00	30.296 
09:55	21.9	13.3	21.9	72	14.3	7	15	90	0.00	30.294 
10:00	21.8	13.2	21.8	72	14.2	7	16	90	0.00	30.293 
10:05	22.1	14.4	22.1	71	14.2	6	12	112	0.00	30.294 
10:10	22.2	13.7	22.2	71	14.3	7	14	112	0.00	30.294 
10:15	22.4	13.9	22.4	70	14.1	7	13	90	0.00	30.300 
10:20	22.4	13.2	22.4	71	14.4	8	15	90	0.00	30.294 
10:25	22.4	13.2	22.4	71	14.4	8	15	112	0.00	30.298 
10:30	23.0	15.5	23.0	71	15.0	6	11	112	0.00	30.293 
10:35	23.2	15.8	23.2	71	15.2	6	14	112	0.00	30.294 
10:40	23.3	15.9	23.3	70	15.0	6	13	90	0.00	30.288 
10:45	23.5	15.3	23.5	66	13.8	7	14	112	0.00	30.285 
10:50	23.8	16.5	23.8	65	13.8	6	12	90	0.00	30.281 
10:55	23.6	14.6	23.6	65	13.6	8	12	112	0.00	30.273 
11:00	24.1	17.8	24.1	67	14.8	5	14	112	0.00	30.273 
11:05	23.8	14.9	23.8	64	13.4	8	16	112	0.00	30.270 
11:10	23.3	13.6	23.3	65	13.3	9	14	112	0.00	30.269 
11:15	23.5	14.5	23.5	64	13.1	8	15	112	0.00	30.273 
11:20	23.6	14.6	23.6	64	13.2	8	14	90	0.00	30.269 
11:25	24.1	16.0	24.1	65	14.1	7	13	112	0.00	30.268 
11:30	24.4	16.3	24.4	62	13.3	7	15	90	0.00	30.265 
11:35	24.5	16.5	24.5	64	14.1	7	14	90	0.00	30.266 
11:40	24.5	16.5	24.5	63	13.7	7	17	112	0.00	30.268 
11:45	24.8	16.8	24.8	64	14.4	7	17	112	0.00	30.267 
11:50	25.0	16.3	25.0	62	13.8	8	17	112	0.00	30.268 
11:55	24.8	16.1	24.8	62	13.7	8	14	112	0.00	30.263 
12:00	25.1	18.0	25.1	62	13.9	6	12	90	0.00	30.268 
12:05	25.6	18.6	25.6	60	13.7	6	13	112	0.00	30.272 
12:10	25.3	16.7	25.3	60	13.4	8	15	90	0.00	30.267 
12:15	25.4	16.8	25.4	62	14.2	8	14	112	0.00	30.255 
12:20	25.3	15.4	25.3	61	13.8	10	15	112	0.00	30.253 
12:25	25.4	16.8	25.4	62	14.2	8	18	112	0.00	30.250 
12:30	25.7	17.2	25.7	62	14.5	8	14	112	0.00	30.244 
12:35	25.7	17.2	25.7	62	14.5	8	19	112	0.00	30.245 
12:40	26.3	18.6	26.3	61	14.7	7	15	112	0.00	30.247 
12:45	26.0	16.3	26.0	62	14.8	10	15	112	0.00	30.246 
12:50	26.0	16.9	26.0	62	14.8	9	16	112	0.00	30.248 
12:55	26.3	19.4	26.3	62	15.1	6	14	90	0.00	30.248 
13:00	26.7	19.9	26.7	61	15.1	6	15	112	0.00	30.242 
13:05	26.6	17.6	26.6	60	14.6	9	17	112	0.00	30.237 
13:10	26.6	18.3	26.6	61	15.0	8	17	90	0.00	30.223 
13:15	26.7	17.7	26.7	61	15.1	9	14	112	0.00	30.213 
13:20	26.9	20.2	26.9	61	15.3	6	14	112	0.00	30.206 
13:25	27.0	18.1	27.0	60	15.0	9	16	112	0.00	30.202 
13:30	27.0	17.5	27.0	59	14.6	10	17	112	0.00	30.192 
13:35	27.2	18.4	27.2	59	14.8	9	17	112	0.00	30.190 
13:40	27.3	19.1	27.3	60	15.3	8	14	112	0.00	30.190 
13:45	27.3	19.1	27.3	60	15.3	8	17	112	0.00	30.183 
13:50	27.5	19.4	27.5	60	15.5	8	18	112	0.00	30.176 
13:55	27.5	18.7	27.5	59	15.1	9	19	112	0.00	30.170 
14:00	27.5	18.7	27.5	60	15.5	9	17	112	0.00	30.166 
14:05	27.5	18.1	27.5	59	15.1	10	17	90	0.00	30.166 
14:10	27.6	18.3	27.6	59	15.2	10	22	112	0.00	30.156 
14:15	27.8	19.7	27.8	61	16.1	8	15	112	0.00	30.156 
14:20	28.1	19.5	28.1	59	15.6	9	16	112	0.00	30.155 
14:25	28.1	19.5	28.1	60	16.0	9	16	112	0.00	30.156 
14:30	28.2	19.6	28.2	58	15.3	9	18	112	0.00	30.144 
14:35	27.9	18.6	27.9	59	15.5	10	18	112	0.00	30.140 
14:40	28.1	19.5	28.1	60	16.0	9	17	112	0.00	30.132 
14:45	28.2	20.2	28.2	59	15.7	8	17	112	0.00	30.144 
14:50	28.7	20.8	28.7	59	16.2	8	14	90	0.00	30.147 
14:55	28.5	20.0	28.5	60	16.4	9	15	112	0.00	30.138 
15:00	28.4	19.3	28.4	59	15.9	10	18	112	0.00	30.139 
15:05	28.1	18.9	28.1	59	15.6	10	20	112	0.00	30.138 
15:10	28.2	19.6	28.2	59	15.7	9	17	112	0.00	30.125 
15:15	28.2	18.5	28.2	58	15.3	11	18	90	0.00	30.125 
15:20	28.4	21.2	28.4	61	16.7	7	15	112	0.00	30.131 
15:25	28.4	19.8	28.4	59	15.9	9	17	112	0.00	30.135 
15:30	28.2	19.0	28.2	60	16.1	10	17	90	0.00	30.130 
15:35	28.4	19.3	28.4	60	16.3	10	17	112	0.00	30.136 
15:40	28.4	19.3	28.4	59	15.9	10	19	90	0.00	30.137 
15:45	28.5	20.6	28.5	60	16.4	8	15	112	0.00	30.126 
15:50	28.5	19.4	28.5	61	16.8	10	17	112	0.00	30.124 
15:55	28.5	20.6	28.5	61	16.8	8	13	112	0.00	30.120 
16:00	28.4	18.7	28.4	60	16.3	11	16	90	0.00	30.116 
16:05	28.4	19.8	28.4	62	17.1	9	18	112	0.00	30.109 
16:10	28.4	19.3	28.4	62	17.1	10	20	112	0.00	30.114 
16:15	28.4	20.5	28.4	63	17.4	8	16	90	0.00	30.115 
16:20	28.4	21.2	28.4	64	17.8	7	15	90	0.00	30.113 
16:25	28.4	20.5	28.4	64	17.8	8	14	112	0.00	30.109 
16:30	28.2	19.0	28.2	62	16.9	10	17	90	0.00	30.110 
16:35	28.2	20.2	28.2	64	17.6	8	16	112	0.00	30.109 
16:40	28.2	20.2	28.2	63	17.2	8	23	112	0.00	30.108 
16:45	28.2	19.6	28.2	63	17.2	9	17	112	0.00	30.107 
16:50	28.2	19.6	28.2	63	17.2	9	18	112	0.00	30.107 
16:55	28.2	19.0	28.2	63	17.2	10	18	90	0.00	30.108 
17:00	28.2	20.2	28.2	63	17.2	8	15	112	0.00	30.112 
17:05	28.2	20.2	28.2	64	17.6	8	15	112	0.00	30.116 
17:10	28.2	19.6	28.2	63	17.2	9	18	112	0.00	30.116 
17:15	28.1	19.5	28.1	64	17.5	9	18	90	0.00	30.112 
17:20	28.1	20.1	28.1	64	17.5	8	17	90	0.00	30.114 
17:25	28.1	20.8	28.1	65	17.9	7	13	90	0.00	30.111 
17:30	28.1	19.5	28.1	64	17.5	9	16	112	0.00	30.110 
17:35	27.9	19.9	27.9	65	17.7	8	15	112	0.00	30.109 
17:40	27.9	19.2	27.9	65	17.7	9	18	90	0.00	30.105 
17:45	27.9	20.6	27.9	65	17.7	7	17	112	0.00	30.115 
17:50	27.9	22.3	27.9	65	17.7	5	11	90	0.00	30.124 
17:55	27.9	20.6	27.9	65	17.7	7	13	112	0.00	30.115 
18:00	27.9	20.6	27.9	65	17.7	7	12	112	0.00	30.112 
18:05	27.9	20.6	27.9	65	17.7	7	18	90	0.00	30.109 
18:10	27.8	20.4	27.8	65	17.6	7	14	90	0.00	30.102 
18:15	27.8	19.7	27.8	64	17.2	8	17	90	0.00	30.094 
18:20	27.6	18.9	27.6	64	17.0	9	16	112	0.00	30.090 
18:25	27.6	20.2	27.6	67	18.1	7	15	112	0.00	30.092 
18:30	27.5	20.9	27.5	71	19.4	6	12	112	0.00	30.095 
18:35	27.2	19.0	27.2	74	20.0	8	13	90	0.00	30.098 
18:40	27.0	20.3	27.0	75	20.2	6	13	90	0.00	30.108 
18:45	27.0	19.5	27.0	75	20.2	7	18	112	0.00	30.100 
18:50	26.9	19.4	26.9	74	19.7	7	15	90	0.00	30.097 
18:55	26.7	19.1	26.7	74	19.5	7	15	90	0.00	30.106 
19:00	26.6	18.3	26.6	74	19.5	8	15	90	0.00	30.095 
19:05	26.4	19.6	26.4	75	19.6	6	12	112	0.00	30.102 
19:10	26.4	19.6	26.4	74	19.3	6	14	112	0.00	30.113 
19:15	26.4	19.6	26.4	75	19.6	6	13	112	0.00	30.110 
19:20	26.4	19.6	26.4	74	19.3	6	13	90	0.00	30.097 
19:25	26.3	18.6	26.3	75	19.5	7	15	90	0.00	30.088 
19:30	26.1	17.7	26.1	75	19.3	8	15	90	0.00	30.076 
19:35	26.0	17.5	26.0	76	19.5	8	15	112	0.00	30.070 
19:40	26.0	19.1	26.0	76	19.5	6	13	90	0.00	30.064 
19:45	25.8	18.0	25.8	76	19.3	7	14	90	0.00	30.049 
19:50	25.7	17.2	25.7	76	19.2	8	14	112	0.00	30.046 
19:55	25.7	17.2	25.7	76	19.2	8	18	90	0.00	30.044 
20:00	25.7	17.9	25.7	77	19.5	7	16	90	0.00	30.054 
20:05	25.6	17.8	25.6	77	19.4	7	14	112	0.00	30.045 
20:10	25.6	16.4	25.6	77	19.4	9	17	112	0.00	30.047 
20:15	25.4	16.1	25.4	77	19.2	9	18	112	0.00	30.035 
20:20	25.4	16.1	25.4	77	19.2	9	18	90	0.00	30.047 
20:25	25.3	17.4	25.3	78	19.4	7	14	90	0.00	30.034 
20:30	25.3	18.3	25.3	78	19.4	6	17	90	0.00	30.029 
20:35	25.3	18.3	25.3	78	19.4	6	14	112	0.00	30.032 
20:40	25.3	17.4	25.3	78	19.4	7	14	112	0.00	30.032 
20:45	25.4	16.8	25.4	77	19.2	8	15	90	0.00	30.032 
20:50	25.4	17.5	25.4	76	18.9	7	15	112	0.00	30.029 
20:55	25.4	16.1	25.4	76	18.9	9	16	112	0.00	30.028 
21:00	25.4	15.5	25.4	76	18.9	10	18	90	0.00	30.032 
21:05	25.3	16.0	25.3	76	18.8	9	14	112	0.00	30.032 
21:10	25.3	16.7	25.3	77	19.1	8	14	112	0.00	30.033 
21:15	25.3	16.0	25.3	77	19.1	9	15	112	0.00	30.027 
21:20	25.3	16.0	25.3	77	19.1	9	14	112	0.00	30.017 
21:25	25.3	15.4	25.3	77	19.1	10	16	112	0.00	30.014 
21:30	25.3	16.7	25.3	77	19.1	8	17	112	0.00	30.008 
21:35	25.3	16.7	25.3	77	19.1	8	13	112	0.00	30.003 
21:40	25.1	16.4	25.1	77	18.9	8	14	112	0.00	29.999 
21:45	25.1	14.6	25.1	77	18.9	11	24	90	0.00	29.985 
21:50	25.1	15.8	25.1	78	19.2	9	17	90	0.00	29.981 
21:55	25.1	15.8	25.1	78	19.2	9	16	90	0.00	29.982 
22:00	25.3	15.4	25.3	78	19.4	10	22	112	0.00	29.973 
22:05	25.3	16.0	25.3	77	19.1	9	16	112	0.00	29.966 
22:10	25.3	17.4	25.3	78	19.4	7	14	112	0.00	29.974 
22:15	25.3	17.4	25.3	78	19.4	7	13	112	0.00	29.970 
22:20	25.4	17.5	25.4	78	19.5	7	18	112	0.00	29.965 
22:25	25.4	16.8	25.4	77	19.2	8	17	112	0.00	29.959 
22:30	25.4	16.1	25.4	79	19.8	9	16	112	0.00	29.957 
22:35	25.4	16.8	25.4	78	19.5	8	16	112	0.00	29.956 
22:40	25.4	16.8	25.4	78	19.5	8	14	112	0.00	29.955 
22:45	25.4	17.5	25.4	78	19.5	7	13	112	0.00	29.961 
22:50	25.6	17.1	25.6	80	20.3	8	14	112	0.00	29.962 
22:55	25.7	17.9	25.7	81	20.7	7	13	112	0.00	29.957 
23:00	25.7	17.2	25.7	82	21.0	8	13	112	0.00	29.940 
23:05	25.8	18.0	25.8	83	21.4	7	14	112	0.00	29.938 
23:10	26.0	20.0	26.0	84	21.8	5	11	112	0.00	29.942 
23:15	26.0	18.3	26.0	84	21.8	7	13	112	0.00	29.933 
23:20	26.3	17.9	26.3	84	22.1	8	15	112	0.00	29.932 
23:25	26.4	18.7	26.4	84	22.2	7	13	112	0.00	29.930 
23:30	26.6	19.0	26.6	85	22.7	7	16	90	0.01	29.925 
23:35	26.6	19.8	26.6	85	22.7	6	13	112	0.00	29.926 
23:40	26.7	19.9	26.7	85	22.8	6	14	90	0.00	29.928 
23:45	26.7	19.9	26.7	85	22.8	6	15	112	0.00	29.930 
23:50	26.9	20.2	26.9	85	23.0	6	14	90	0.00	29.931 
23:55	26.9	20.2	26.9	84	22.7	6	17	90	0.00	29.939 

CoCoRaHS
IN-AL-39
A2 Web Hosting
Creative Commons License
GoDaddy
Look for:

loaded 2017-12-11 06:44:09 • last modified 2010-11-18 10:43:29
Privacy PolicyDisclaimer
• wx.awcolley.com is powered by PmWiki v.2002016 •
• all content (unless otherwise noted) © 2017 A W Colley